sensor_id;sensor_type;location;lat;lon;timestamp;pressure;altitude;pressure_sealevel;temperature;humidity
32933;BME280;19444;50.518;10.870;2022-11-22T00:01:02;94722.97;;;1.33;100.00
32933;BME280;19444;50.518;10.870;2022-11-22T00:03:59;94719.06;;;1.30;100.00
32933;BME280;19444;50.518;10.870;2022-11-22T00:06:56;94726.94;;;1.17;100.00
32933;BME280;19444;50.518;10.870;2022-11-22T00:09:53;94713.88;;;1.11;100.00
32933;BME280;19444;50.518;10.870;2022-11-22T00:12:50;94726.00;;;1.40;100.00
32933;BME280;19444;50.518;10.870;2022-11-22T00:16:02;94717.66;;;1.05;100.00
32933;BME280;19444;50.518;10.870;2022-11-22T00:18:59;94713.06;;;1.11;100.00
32933;BME280;19444;50.518;10.870;2022-11-22T00:21:56;94719.03;;;1.03;100.00
32933;BME280;19444;50.518;10.870;2022-11-22T00:24:53;94716.28;;;1.08;100.00
32933;BME280;19444;50.518;10.870;2022-11-22T00:27:50;94718.47;;;1.20;100.00
32933;BME280;19444;50.518;10.870;2022-11-22T00:30:46;94706.25;;;1.51;100.00
32933;BME280;19444;50.518;10.870;2022-11-22T00:33:43;94709.09;;;1.41;100.00
32933;BME280;19444;50.518;10.870;2022-11-22T00:36:40;94705.56;;;1.32;100.00
32933;BME280;19444;50.518;10.870;2022-11-22T00:39:37;94692.09;;;1.20;100.00
32933;BME280;19444;50.518;10.870;2022-11-22T00:42:34;94691.31;;;1.19;100.00
32933;BME280;19444;50.518;10.870;2022-11-22T00:45:31;94696.78;;;1.50;100.00
32933;BME280;19444;50.518;10.870;2022-11-22T00:48:28;94686.50;;;1.35;100.00
32933;BME280;19444;50.518;10.870;2022-11-22T00:51:25;94693.06;;;1.37;100.00
32933;BME280;19444;50.518;10.870;2022-11-22T00:54:21;94694.03;;;1.41;100.00
32933;BME280;19444;50.518;10.870;2022-11-22T00:57:18;94683.00;;;1.12;100.00
32933;BME280;19444;50.518;10.870;2022-11-22T01:00:16;94685.03;;;1.15;100.00
32933;BME280;19444;50.518;10.870;2022-11-22T01:03:13;94684.31;;;1.09;100.00
32933;BME280;19444;50.518;10.870;2022-11-22T01:06:10;94664.59;;;1.07;100.00
32933;BME280;19444;50.518;10.870;2022-11-22T01:09:06;94661.47;;;1.19;100.00
32933;BME280;19444;50.518;10.870;2022-11-22T01:12:04;94649.66;;;1.30;100.00
32933;BME280;19444;50.518;10.870;2022-11-22T01:15:02;94651.31;;;1.26;100.00
32933;BME280;19444;50.518;10.870;2022-11-22T01:17:59;94637.44;;;1.34;100.00
32933;BME280;19444;50.518;10.870;2022-11-22T01:20:56;94639.00;;;1.49;100.00
32933;BME280;19444;50.518;10.870;2022-11-22T01:23:53;94648.69;;;1.39;100.00
32933;BME280;19444;50.518;10.870;2022-11-22T01:26:50;94653.19;;;1.39;100.00
32933;BME280;19444;50.518;10.870;2022-11-22T01:29:47;94644.19;;;1.40;100.00
32933;BME280;19444;50.518;10.870;2022-11-22T01:32:44;94633.72;;;1.49;100.00
32933;BME280;19444;50.518;10.870;2022-11-22T01:35:41;94639.56;;;1.59;100.00
32933;BME280;19444;50.518;10.870;2022-11-22T01:38:38;94641.44;;;1.45;100.00
32933;BME280;19444;50.518;10.870;2022-11-22T01:41:35;94626.38;;;1.46;100.00
32933;BME280;19444;50.518;10.870;2022-11-22T01:44:32;94618.06;;;1.52;100.00
32933;BME280;19444;50.518;10.870;2022-11-22T01:47:29;94631.00;;;1.40;100.00
32933;BME280;19444;50.518;10.870;2022-11-22T01:50:28;94627.78;;;1.29;100.00
32933;BME280;19444;50.518;10.870;2022-11-22T01:53:30;94635.28;;;1.50;100.00
32933;BME280;19444;50.518;10.870;2022-11-22T01:56:29;94640.09;;;1.48;100.00
32933;BME280;19444;50.518;10.870;2022-11-22T01:59:29;94645.63;;;1.60;100.00
32933;BME280;19444;50.518;10.870;2022-11-22T02:02:29;94631.56;;;1.51;100.00
32933;BME280;19444;50.518;10.870;2022-11-22T02:05:30;94625.72;;;1.40;100.00
32933;BME280;19444;50.518;10.870;2022-11-22T02:08:36;94612.31;;;1.36;100.00
32933;BME280;19444;50.518;10.870;2022-11-22T02:11:39;94622.38;;;1.48;100.00
32933;BME280;19444;50.518;10.870;2022-11-22T02:14:37;94606.63;;;1.57;100.00
32933;BME280;19444;50.518;10.870;2022-11-22T02:17:35;94608.97;;;1.58;100.00
32933;BME280;19444;50.518;10.870;2022-11-22T02:20:32;94598.63;;;1.48;100.00
32933;BME280;19444;50.518;10.870;2022-11-22T02:23:45;94611.41;;;1.55;100.00
32933;BME280;19444;50.518;10.870;2022-11-22T02:26:46;94604.25;;;1.55;100.00
32933;BME280;19444;50.518;10.870;2022-11-22T02:29:43;94610.28;;;1.47;100.00
32933;BME280;19444;50.518;10.870;2022-11-22T02:32:40;94614.25;;;1.45;100.00
32933;BME280;19444;50.518;10.870;2022-11-22T02:35:39;94606.91;;;1.55;100.00
32933;BME280;19444;50.518;10.870;2022-11-22T02:38:37;94599.75;;;1.69;100.00
32933;BME280;19444;50.518;10.870;2022-11-22T02:41:35;94589.09;;;1.61;100.00
32933;BME280;19444;50.518;10.870;2022-11-22T02:44:33;94599.28;;;1.54;100.00
32933;BME280;19444;50.518;10.870;2022-11-22T02:47:30;94613.47;;;1.58;100.00
32933;BME280;19444;50.518;10.870;2022-11-22T02:50:26;94607.59;;;1.61;100.00
32933;BME280;19444;50.518;10.870;2022-11-22T02:53:23;94611.91;;;1.57;100.00
32933;BME280;19444;50.518;10.870;2022-11-22T02:56:20;94618.44;;;1.59;100.00
32933;BME280;19444;50.518;10.870;2022-11-22T02:59:17;94609.84;;;1.67;100.00
32933;BME280;19444;50.518;10.870;2022-11-22T03:02:14;94602.13;;;1.57;100.00
32933;BME280;19444;50.518;10.870;2022-11-22T03:05:11;94601.44;;;1.65;100.00
32933;BME280;19444;50.518;10.870;2022-11-22T03:08:08;94604.78;;;1.57;100.00
32933;BME280;19444;50.518;10.870;2022-11-22T03:11:05;94608.59;;;1.51;100.00
32933;BME280;19444;50.518;10.870;2022-11-22T03:14:02;94597.03;;;1.61;100.00
32933;BME280;19444;50.518;10.870;2022-11-22T03:16:59;94604.22;;;1.47;100.00
32933;BME280;19444;50.518;10.870;2022-11-22T03:19:56;94604.91;;;1.38;100.00
32933;BME280;19444;50.518;10.870;2022-11-22T03:22:53;94604.22;;;1.33;100.00
32933;BME280;19444;50.518;10.870;2022-11-22T03:25:51;94598.34;;;1.50;100.00
32933;BME280;19444;50.518;10.870;2022-11-22T03:28:47;94582.72;;;1.39;100.00
32933;BME280;19444;50.518;10.870;2022-11-22T03:31:44;94568.94;;;1.29;100.00
32933;BME280;19444;50.518;10.870;2022-11-22T03:34:42;94574.31;;;1.37;100.00
32933;BME280;19444;50.518;10.870;2022-11-22T03:37:39;94564.13;;;1.45;100.00
32933;BME280;19444;50.518;10.870;2022-11-22T03:40:36;94559.50;;;1.50;100.00
32933;BME280;19444;50.518;10.870;2022-11-22T03:43:32;94563.88;;;1.55;100.00
32933;BME280;19444;50.518;10.870;2022-11-22T03:46:29;94570.53;;;1.66;100.00
32933;BME280;19444;50.518;10.870;2022-11-22T03:49:26;94567.81;;;1.57;100.00
32933;BME280;19444;50.518;10.870;2022-11-22T03:52:24;94581.66;;;1.63;100.00
32933;BME280;19444;50.518;10.870;2022-11-22T03:55:20;94595.66;;;1.63;100.00
32933;BME280;19444;50.518;10.870;2022-11-22T03:58:17;94597.59;;;1.71;100.00
32933;BME280;19444;50.518;10.870;2022-11-22T04:01:14;94605.03;;;1.69;100.00
32933;BME280;19444;50.518;10.870;2022-11-22T04:04:12;94618.53;;;1.68;100.00
32933;BME280;19444;50.518;10.870;2022-11-22T04:07:09;94609.53;;;1.55;100.00
32933;BME280;19444;50.518;10.870;2022-11-22T04:10:07;94600.94;;;1.63;100.00
32933;BME280;19444;50.518;10.870;2022-11-22T04:13:04;94608.56;;;1.65;100.00
32933;BME280;19444;50.518;10.870;2022-11-22T04:16:01;94592.44;;;1.66;100.00
32933;BME280;19444;50.518;10.870;2022-11-22T04:18:57;94598.78;;;1.65;100.00
32933;BME280;19444;50.518;10.870;2022-11-22T04:21:54;94601.53;;;1.60;100.00
32933;BME280;19444;50.518;10.870;2022-11-22T04:24:51;94609.44;;;1.60;100.00
32933;BME280;19444;50.518;10.870;2022-11-22T04:28:08;94607.38;;;1.71;100.00
32933;BME280;19444;50.518;10.870;2022-11-22T04:31:06;94616.06;;;1.71;100.00
32933;BME280;19444;50.518;10.870;2022-11-22T04:34:22;94614.22;;;1.72;100.00
32933;BME280;19444;50.518;10.870;2022-11-22T04:37:19;94633.47;;;1.73;100.00
32933;BME280;19444;50.518;10.870;2022-11-22T04:40:16;94642.16;;;1.73;100.00
32933;BME280;19444;50.518;10.870;2022-11-22T04:43:28;94630.66;;;1.69;100.00
32933;BME280;19444;50.518;10.870;2022-11-22T04:46:43;94612.34;;;1.73;100.00
32933;BME280;19444;50.518;10.870;2022-11-22T04:49:40;94624.91;;;1.67;100.00
32933;BME280;19444;50.518;10.870;2022-11-22T04:52:37;94616.66;;;1.68;100.00
32933;BME280;19444;50.518;10.870;2022-11-22T04:55:52;94623.69;;;1.73;100.00
32933;BME280;19444;50.518;10.870;2022-11-22T04:58:49;94631.59;;;1.73;100.00
32933;BME280;19444;50.518;10.870;2022-11-22T05:01:51;94634.94;;;1.79;100.00
32933;BME280;19444;50.518;10.870;2022-11-22T05:04:48;94636.50;;;1.80;100.00
32933;BME280;19444;50.518;10.870;2022-11-22T05:07:46;94634.06;;;1.69;100.00
32933;BME280;19444;50.518;10.870;2022-11-22T05:10:43;94646.97;;;1.71;100.00
32933;BME280;19444;50.518;10.870;2022-11-22T05:13:52;94650.88;;;1.74;100.00
32933;BME280;19444;50.518;10.870;2022-11-22T05:16:49;94661.06;;;1.66;100.00
32933;BME280;19444;50.518;10.870;2022-11-22T05:19:46;94660.56;;;1.64;100.00
32933;BME280;19444;50.518;10.870;2022-11-22T05:22:45;94652.63;;;1.78;100.00
32933;BME280;19444;50.518;10.870;2022-11-22T05:26:01;94661.66;;;1.63;100.00
32933;BME280;19444;50.518;10.870;2022-11-22T05:29:02;94666.66;;;1.65;100.00
32933;BME280;19444;50.518;10.870;2022-11-22T05:31:59;94664.38;;;1.72;100.00
32933;BME280;19444;50.518;10.870;2022-11-22T05:34:56;94657.56;;;1.57;100.00
32933;BME280;19444;50.518;10.870;2022-11-22T05:37:56;94661.66;;;1.63;100.00
32933;BME280;19444;50.518;10.870;2022-11-22T05:40:53;94657.56;;;1.57;100.00
32933;BME280;19444;50.518;10.870;2022-11-22T05:43:49;94658.81;;;1.60;100.00
32933;BME280;19444;50.518;10.870;2022-11-22T05:46:46;94656.78;;;1.57;100.00
32933;BME280;19444;50.518;10.870;2022-11-22T05:49:43;94669.69;;;1.58;100.00
32933;BME280;19444;50.518;10.870;2022-11-22T05:52:41;94662.84;;;1.57;100.00
32933;BME280;19444;50.518;10.870;2022-11-22T05:55:38;94663.63;;;1.58;100.00
32933;BME280;19444;50.518;10.870;2022-11-22T05:58:37;94662.94;;;1.52;100.00
32933;BME280;19444;50.518;10.870;2022-11-22T06:01:34;94670.25;;;1.55;100.00
32933;BME280;19444;50.518;10.870;2022-11-22T06:04:30;94672.22;;;1.63;100.00
32933;BME280;19444;50.518;10.870;2022-11-22T06:07:27;94672.34;;;1.58;100.00
32933;BME280;19444;50.518;10.870;2022-11-22T06:10:25;94686.41;;;1.54;100.00
32933;BME280;19444;50.518;10.870;2022-11-22T06:13:22;94684.53;;;1.54;100.00
32933;BME280;19444;50.518;10.870;2022-11-22T06:16:19;94688.56;;;1.52;100.00
32933;BME280;19444;50.518;10.870;2022-11-22T06:19:16;94697.38;;;1.47;100.00
32933;BME280;19444;50.518;10.870;2022-11-22T06:22:13;94690.50;;;1.46;100.00
32933;BME280;19444;50.518;10.870;2022-11-22T06:25:10;94698.94;;;1.48;100.00
32933;BME280;19444;50.518;10.870;2022-11-22T06:28:07;94695.50;;;1.48;100.00
32933;BME280;19444;50.518;10.870;2022-11-22T06:31:08;94697.38;;;1.47;100.00
32933;BME280;19444;50.518;10.870;2022-11-22T06:34:06;94694.13;;;1.50;100.00
32933;BME280;19444;50.518;10.870;2022-11-22T06:37:03;94691.50;;;1.50;100.00
32933;BME280;19444;50.518;10.870;2022-11-22T06:40:00;94694.72;;;1.61;100.00
32933;BME280;19444;50.518;10.870;2022-11-22T06:42:57;94698.72;;;1.58;100.00
32933;BME280;19444;50.518;10.870;2022-11-22T06:45:58;94695.88;;;1.55;100.00
32933;BME280;19444;50.518;10.870;2022-11-22T06:48:55;94699.03;;;1.57;100.00
32933;BME280;19444;50.518;10.870;2022-11-22T06:51:52;94704.00;;;1.58;100.00
32933;BME280;19444;50.518;10.870;2022-11-22T06:54:48;94704.00;;;1.58;100.00
32933;BME280;19444;50.518;10.870;2022-11-22T06:57:49;94717.50;;;1.57;100.00
32933;BME280;19444;50.518;10.870;2022-11-22T07:00:47;94726.56;;;1.64;100.00
32933;BME280;19444;50.518;10.870;2022-11-22T07:03:45;94721.59;;;1.63;100.00
32933;BME280;19444;50.518;10.870;2022-11-22T07:06:42;94728.53;;;1.73;100.00
32933;BME280;19444;50.518;10.870;2022-11-22T07:09:39;94733.44;;;1.65;100.00
32933;BME280;19444;50.518;10.870;2022-11-22T07:12:36;94725.88;;;1.73;100.00
32933;BME280;19444;50.518;10.870;2022-11-22T07:15:33;94731.78;;;1.69;100.00
32933;BME280;19444;50.518;10.870;2022-11-22T07:18:31;94739.69;;;1.69;100.00
32933;BME280;19444;50.518;10.870;2022-11-22T07:21:28;94735.28;;;1.79;100.00
32933;BME280;19444;50.518;10.870;2022-11-22T07:24:25;94740.94;;;1.72;100.00
32933;BME280;19444;50.518;10.870;2022-11-22T07:27:22;94753.78;;;1.79;100.00
32933;BME280;19444;50.518;10.870;2022-11-22T07:30:19;94742.44;;;1.78;100.00
32933;BME280;19444;50.518;10.870;2022-11-22T07:33:17;94743.22;;;1.92;100.00
32933;BME280;19444;50.518;10.870;2022-11-22T07:36:18;94750.44;;;1.87;100.00
32933;BME280;19444;50.518;10.870;2022-11-22T07:39:15;94753.56;;;1.89;100.00
32933;BME280;19444;50.518;10.870;2022-11-22T07:42:12;94752.97;;;1.92;100.00
32933;BME280;19444;50.518;10.870;2022-11-22T07:45:09;94753.78;;;1.92;100.00
32933;BME280;19444;50.518;10.870;2022-11-22T07:48:06;94745.72;;;1.97;100.00
32933;BME280;19444;50.518;10.870;2022-11-22T07:51:05;94744.94;;;1.97;100.00
32933;BME280;19444;50.518;10.870;2022-11-22T07:54:02;94756.00;;;1.99;100.00
32933;BME280;19444;50.518;10.870;2022-11-22T07:56:59;94764.41;;;2.01;100.00
32933;BME280;19444;50.518;10.870;2022-11-22T07:59:56;94780.56;;;1.99;100.00
32933;BME280;19444;50.518;10.870;2022-11-22T08:02:53;94783.50;;;2.12;100.00
32933;BME280;19444;50.518;10.870;2022-11-22T08:05:57;94793.38;;;2.06;100.00
32933;BME280;19444;50.518;10.870;2022-11-22T08:08:54;94791.72;;;1.96;100.00
32933;BME280;19444;50.518;10.870;2022-11-22T08:11:58;94788.19;;;2.01;100.00
32933;BME280;19444;50.518;10.870;2022-11-22T08:14:54;94797.88;;;1.92;100.00
32933;BME280;19444;50.518;10.870;2022-11-22T08:17:52;94804.94;;;1.96;100.00
32933;BME280;19444;50.518;10.870;2022-11-22T08:20:48;94804.53;;;2.03;100.00
32933;BME280;19444;50.518;10.870;2022-11-22T08:23:46;94813.44;;;2.07;100.00
32933;BME280;19444;50.518;10.870;2022-11-22T08:26:43;94818.41;;;2.09;100.00
32933;BME280;19444;50.518;10.870;2022-11-22T08:29:40;94811.47;;;2.13;100.00
32933;BME280;19444;50.518;10.870;2022-11-22T08:32:37;94821.63;;;2.19;100.00
32933;BME280;19444;50.518;10.870;2022-11-22T08:35:34;94829.28;;;2.21;100.00
32933;BME280;19444;50.518;10.870;2022-11-22T08:38:32;94838.09;;;2.30;100.00
32933;BME280;19444;50.518;10.870;2022-11-22T08:41:29;94835.94;;;2.32;100.00
32933;BME280;19444;50.518;10.870;2022-11-22T08:44:25;94843.25;;;2.35;100.00
32933;BME280;19444;50.518;10.870;2022-11-22T08:47:22;94848.63;;;2.44;100.00
32933;BME280;19444;50.518;10.870;2022-11-22T08:50:19;94849.97;;;2.55;100.00
32933;BME280;19444;50.518;10.870;2022-11-22T08:53:16;94839.53;;;2.50;100.00
32933;BME280;19444;50.518;10.870;2022-11-22T08:56:15;94833.63;;;2.53;100.00
32933;BME280;19444;50.518;10.870;2022-11-22T08:59:12;94847.72;;;2.62;100.00
32933;BME280;19444;50.518;10.870;2022-11-22T09:02:09;94834.03;;;2.60;100.00
32933;BME280;19444;50.518;10.870;2022-11-22T09:05:06;94844.19;;;2.67;100.00
32933;BME280;19444;50.518;10.870;2022-11-22T09:08:05;94849.97;;;2.69;100.00
32933;BME280;19444;50.518;10.870;2022-11-22T09:11:18;94850.34;;;2.76;100.00
32933;BME280;19444;50.518;10.870;2022-11-22T09:14:15;94851.06;;;2.68;100.00
32933;BME280;19444;50.518;10.870;2022-11-22T09:17:12;94851.72;;;2.73;100.00
32933;BME280;19444;50.518;10.870;2022-11-22T09:20:14;94858.09;;;2.72;100.00
32933;BME280;19444;50.518;10.870;2022-11-22T09:23:11;94857.59;;;2.70;100.00
32933;BME280;19444;50.518;10.870;2022-11-22T09:26:11;94863.06;;;2.74;100.00
32933;BME280;19444;50.518;10.870;2022-11-22T09:29:08;94857.28;;;2.85;100.00
32933;BME280;19444;50.518;10.870;2022-11-22T09:32:08;94862.50;;;2.77;100.00
32933;BME280;19444;50.518;10.870;2022-11-22T09:35:06;94873.25;;;2.80;100.00
32933;BME280;19444;50.518;10.870;2022-11-22T09:38:03;94866.00;;;2.72;100.00
32933;BME280;19444;50.518;10.870;2022-11-22T09:48:00;94858.22;;;2.90;100.00
32933;BME280;19444;50.518;10.870;2022-11-22T09:51:14;94858.22;;;2.90;100.00
32933;BME280;19444;50.518;10.870;2022-11-22T09:54:22;94858.22;;;2.90;100.00
32933;BME280;19444;50.518;10.870;2022-11-22T09:57:41;94855.59;;;2.90;100.00
32933;BME280;19444;50.518;10.870;2022-11-22T10:00:41;94857.16;;;2.91;100.00
32933;BME280;19444;50.518;10.870;2022-11-22T10:04:02;94859.56;;;3.01;100.00
32933;BME280;19444;50.518;10.870;2022-11-22T10:07:10;94855.66;;;2.98;100.00
32933;BME280;19444;50.518;10.870;2022-11-22T10:10:20;94855.25;;;3.05;100.00
32933;BME280;19444;50.518;10.870;2022-11-22T10:13:32;94851.59;;;3.14;100.00
32933;BME280;19444;50.518;10.870;2022-11-22T10:20:18;94863.63;;;3.21;100.00
32933;BME280;19444;50.518;10.870;2022-11-22T10:23:22;94852.66;;;3.36;100.00
32933;BME280;19444;50.518;10.870;2022-11-22T10:26:32;94849.97;;;3.50;100.00
32933;BME280;19444;50.518;10.870;2022-11-22T10:33:28;94853.19;;;3.47;100.00
32933;BME280;19444;50.518;10.870;2022-11-22T10:36:48;94845.59;;;3.76;100.00
32933;BME280;19444;50.518;10.870;2022-11-22T10:43:34;94851.75;;;3.94;100.00
32933;BME280;19444;50.518;10.870;2022-11-22T10:47:30;94850.16;;;3.84;100.00
32933;BME280;19444;50.518;10.870;2022-11-22T10:51:13;94838.59;;;3.80;100.00
32933;BME280;19444;50.518;10.870;2022-11-22T11:01:05;94843.22;;;4.06;100.00
32933;BME280;19444;50.518;10.870;2022-11-22T11:04:03;94855.66;;;3.96;100.00
32933;BME280;19444;50.518;10.870;2022-11-22T11:07:02;94850.84;;;4.07;100.00
32933;BME280;19444;50.518;10.870;2022-11-22T11:10:21;94852.69;;;3.98;100.00
32933;BME280;19444;50.518;10.870;2022-11-22T11:13:37;94854.94;;;4.13;100.00
32933;BME280;19444;50.518;10.870;2022-11-22T11:16:38;94846.25;;;4.21;100.00
32933;BME280;19444;50.518;10.870;2022-11-22T11:19:40;94845.47;;;4.21;100.00
32933;BME280;19444;50.518;10.870;2022-11-22T11:22:39;94845.59;;;4.16;100.00
32933;BME280;19444;50.518;10.870;2022-11-22T11:26:31;94833.91;;;4.17;100.00
32933;BME280;19444;50.518;10.870;2022-11-22T11:29:56;94839.34;;;4.20;100.00
32933;BME280;19444;50.518;10.870;2022-11-22T11:32:56;94844.13;;;4.41;100.00
32933;BME280;19444;50.518;10.870;2022-11-22T11:36:10;94837.56;;;4.47;100.00
32933;BME280;19444;50.518;10.870;2022-11-22T11:39:36;94835.88;;;4.60;100.00
32933;BME280;19444;50.518;10.870;2022-11-22T11:42:40;94831.19;;;4.56;100.00
32933;BME280;19444;50.518;10.870;2022-11-22T11:45:37;94844.44;;;4.39;100.00
32933;BME280;19444;50.518;10.870;2022-11-22T11:48:36;94841.56;;;4.27;100.00
32933;BME280;19444;50.518;10.870;2022-11-22T11:51:40;94853.25;;;4.26;100.00
32933;BME280;19444;50.518;10.870;2022-11-22T11:57:35;94852.50;;;4.34;100.00
32933;BME280;19444;50.518;10.870;2022-11-22T12:00:38;94845.69;;;4.50;100.00
32933;BME280;19444;50.518;10.870;2022-11-22T12:03:35;94849.13;;;4.51;100.00
32933;BME280;19444;50.518;10.870;2022-11-22T12:06:32;94851.16;;;4.54;100.00
32933;BME280;19444;50.518;10.870;2022-11-22T12:09:34;94855.53;;;4.50;100.00
32933;BME280;19444;50.518;10.870;2022-11-22T12:16:39;94864.00;;;4.69;100.00
32933;BME280;19444;50.518;10.870;2022-11-22T12:20:07;94869.28;;;4.69;100.00
32933;BME280;19444;50.518;10.870;2022-11-22T12:26:46;94861.94;;;4.57;100.00
32933;BME280;19444;50.518;10.870;2022-11-22T12:29:44;94855.84;;;4.48;100.00
32933;BME280;19444;50.518;10.870;2022-11-22T12:33:01;94846.16;;;4.52;100.00
32933;BME280;19444;50.518;10.870;2022-11-22T12:36:03;94851.41;;;4.35;100.00
32933;BME280;19444;50.518;10.870;2022-11-22T12:39:05;94849.13;;;4.51;100.00
32933;BME280;19444;50.518;10.870;2022-11-22T12:42:24;94848.50;;;4.54;100.00
32933;BME280;19444;50.518;10.870;2022-11-22T12:45:41;94836.81;;;4.72;100.00
32933;BME280;19444;50.518;10.870;2022-11-22T12:48:55;94837.16;;;4.88;100.00
32933;BME280;19444;50.518;10.870;2022-11-22T12:52:14;94824.03;;;5.26;100.00
32933;BME280;19444;50.518;10.870;2022-11-22T12:55:25;94816.50;;;5.46;100.00
32933;BME280;19444;50.518;10.870;2022-11-22T13:08:17;94801.22;;;5.17;100.00
32933;BME280;19444;50.518;10.870;2022-11-22T13:11:57;94809.50;;;5.32;100.00
32933;BME280;19444;50.518;10.870;2022-11-22T13:14:55;94798.72;;;5.20;100.00
32933;BME280;19444;50.518;10.870;2022-11-22T13:17:54;94790.75;;;5.11;100.00
32933;BME280;19444;50.518;10.870;2022-11-22T13:27:48;94803.41;;;5.23;100.00
32933;BME280;19444;50.518;10.870;2022-11-22T13:34:23;94789.03;;;5.24;100.00
32933;BME280;19444;50.518;10.870;2022-11-22T13:37:21;94791.06;;;5.19;100.00
32933;BME280;19444;50.518;10.870;2022-11-22T13:40:34;94792.19;;;5.00;100.00
32933;BME280;19444;50.518;10.870;2022-11-22T13:43:51;94792.81;;;5.14;100.00
32933;BME280;19444;50.518;10.870;2022-11-22T13:47:41;94794.69;;;5.14;100.00
32933;BME280;19444;50.518;10.870;2022-11-22T13:53:43;94809.66;;;5.19;100.00
32933;BME280;19444;50.518;10.870;2022-11-22T13:59:37;94801.22;;;5.17;100.00
32933;BME280;19444;50.518;10.870;2022-11-22T14:02:35;94803.13;;;5.07;100.00
32933;BME280;19444;50.518;10.870;2022-11-22T14:05:35;94792.19;;;5.00;100.00
32933;BME280;19444;50.518;10.870;2022-11-22T14:08:38;94801.56;;;4.89;100.00
32933;BME280;19444;50.518;10.870;2022-11-22T14:15:37;94794.69;;;4.88;100.00
32933;BME280;19444;50.518;10.870;2022-11-22T14:26:09;94809.34;;;4.51;100.00
32933;BME280;19444;50.518;10.870;2022-11-22T14:33:04;94828.03;;;4.37;100.00
32933;BME280;19444;50.518;10.870;2022-11-22T14:45:52;94826.34;;;4.02;100.00
32933;BME280;19444;50.518;10.870;2022-11-22T14:52:29;94835.72;;;3.68;100.00
32933;BME280;19444;50.518;10.870;2022-11-22T14:55:31;94845.84;;;3.66;100.00
32933;BME280;19444;50.518;10.870;2022-11-22T14:58:29;94856.09;;;3.90;100.00
32933;BME280;19444;50.518;10.870;2022-11-22T15:01:32;94857.53;;;3.42;100.00
32933;BME280;19444;50.518;10.870;2022-11-22T15:05:10;94852.66;;;3.89;100.00
32933;BME280;19444;50.518;10.870;2022-11-22T15:15:54;94865.53;;;3.51;100.00
32933;BME280;19444;50.518;10.870;2022-11-22T15:19:37;94868.31;;;3.46;100.00
32933;BME280;19444;50.518;10.870;2022-11-22T15:22:54;94872.06;;;3.23;100.00
32933;BME280;19444;50.518;10.870;2022-11-22T15:26:18;94876.03;;;3.11;100.00
32933;BME280;19444;50.518;10.870;2022-11-22T15:29:35;94885.16;;;3.28;100.00
32933;BME280;19444;50.518;10.870;2022-11-22T15:32:53;94887.94;;;3.45;100.00
32933;BME280;19444;50.518;10.870;2022-11-22T15:39:52;94895.03;;;3.36;100.00
32933;BME280;19444;50.518;10.870;2022-11-22T15:43:18;94889.50;;;3.46;100.00
32933;BME280;19444;50.518;10.870;2022-11-22T15:46:37;94896.41;;;3.33;100.00
32933;BME280;19444;50.518;10.870;2022-11-22T15:49:55;94912.38;;;3.42;100.00
32933;BME280;19444;50.518;10.870;2022-11-22T15:53:24;94912.22;;;3.25;100.00
32933;BME280;19444;50.518;10.870;2022-11-22T16:00:26;94918.97;;;3.53;100.00
32933;BME280;19444;50.518;10.870;2022-11-22T16:03:25;94920.19;;;3.47;100.00
32933;BME280;19444;50.518;10.870;2022-11-22T16:06:28;94914.59;;;3.49;100.00
32933;BME280;19444;50.518;10.870;2022-11-22T16:12:35;94929.34;;;3.41;100.00
32933;BME280;19444;50.518;10.870;2022-11-22T16:15:33;94930.84;;;3.56;100.00
32933;BME280;19444;50.518;10.870;2022-11-22T16:18:32;94934.09;;;3.53;100.00
32933;BME280;19444;50.518;10.870;2022-11-22T16:21:29;94940.31;;;3.48;100.00
32933;BME280;19444;50.518;10.870;2022-11-22T16:24:30;94934.81;;;3.45;100.00
32933;BME280;19444;50.518;10.870;2022-11-22T16:27:27;94935.28;;;3.47;100.00
32933;BME280;19444;50.518;10.870;2022-11-22T16:30:24;94932.22;;;3.31;100.00
32933;BME280;19444;50.518;10.870;2022-11-22T16:33:22;94936.88;;;3.48;100.00
32933;BME280;19444;50.518;10.870;2022-11-22T16:36:21;94936.75;;;3.53;100.00
32933;BME280;19444;50.518;10.870;2022-11-22T16:39:18;94940.13;;;3.67;100.00
32933;BME280;19444;50.518;10.870;2022-11-22T16:42:15;94939.69;;;3.51;100.00
32933;BME280;19444;50.518;10.870;2022-11-22T16:45:17;94948.41;;;3.52;100.00
32933;BME280;19444;50.518;10.870;2022-11-22T16:48:26;94935.19;;;3.52;100.00
32933;BME280;19444;50.518;10.870;2022-11-22T16:51:28;94942.00;;;3.66;100.00
32933;BME280;19444;50.518;10.870;2022-11-22T16:54:26;94948.13;;;3.53;100.00
32933;BME280;19444;50.518;10.870;2022-11-22T16:57:24;94944.50;;;3.49;100.00
32933;BME280;19444;50.518;10.870;2022-11-22T17:00:20;94942.00;;;3.66;100.00
32933;BME280;19444;50.518;10.870;2022-11-22T17:03:21;94941.97;;;3.44;100.00
32933;BME280;19444;50.518;10.870;2022-11-22T17:06:22;94951.72;;;3.35;100.00
32933;BME280;19444;50.518;10.870;2022-11-22T17:09:19;94952.69;;;3.39;100.00
32933;BME280;19444;50.518;10.870;2022-11-22T17:12:24;94949.84;;;3.35;100.00
32933;BME280;19444;50.518;10.870;2022-11-22T17:15:29;94954.63;;;3.69;100.00
32933;BME280;19444;50.518;10.870;2022-11-22T17:18:27;94959.09;;;3.60;100.00
32933;BME280;19444;50.518;10.870;2022-11-22T17:21:25;94958.16;;;3.65;100.00
32933;BME280;19444;50.518;10.870;2022-11-22T17:24:28;94962.22;;;3.62;100.00
32933;BME280;19444;50.518;10.870;2022-11-22T17:27:25;94961.34;;;3.53;100.00
32933;BME280;19444;50.518;10.870;2022-11-22T17:30:22;94962.44;;;3.52;100.00
32933;BME280;19444;50.518;10.870;2022-11-22T17:33:19;94968.97;;;3.68;100.00
32933;BME280;19444;50.518;10.870;2022-11-22T17:36:54;94966.19;;;3.74;100.00
32933;BME280;19444;50.518;10.870;2022-11-22T17:39:44;94957.88;;;3.66;100.00